Time;durP1;ratioP1;P1;durP2;ratioP2;P2;SDS_P1;SDS_P2;PMS_P1;PMS_P2;Temp;Humidity;BMP_temperature;BMP_pressure;BME280_temperature;BME280_humidity;BME280_pressure;Samples;Min_cycle;Max_cycle;Signal;HPM_P1;HPM_P2
2024/01/01 00:01:42;;;;;;;9.55;5.93;;;;;;;;;;4981752;28;20515;-73
2024/01/01 00:04:10;;;;;;;6.75;3.85;;;;;;;;;;4984517;28;20050;-73
2024/01/01 00:06:38;;;;;;;12.68;10.88;;;;;;;;;;4984712;28;20043;-73
2024/01/01 00:09:05;;;;;;;13.55;8.80;;;;;;;;;;4987576;28;20061;-72
2024/01/01 00:11:33;;;;;;;1.42;1.35;;;;;;;;;;4985952;28;20769;-74
2024/01/01 00:14:01;;;;;;;6.85;6.15;;;;;;;;;;5006863;23;24201;-80
2024/01/01 00:16:29;;;;;;;2.03;1.48;;;;;;;;;;5005134;28;20076;-79
2024/01/01 00:18:56;;;;;;;5.60;5.07;;;;;;;;;;5008235;28;20125;-79
2024/01/01 00:21:24;;;;;;;6.00;4.95;;;;;;;;;;4994599;28;20494;-79
2024/01/01 00:23:52;;;;;;;0.10;0.10;;;;;;;;;;5007866;28;20041;-79
2024/01/01 00:26:20;;;;;;;12.57;2.40;;;;;;;;;;5005641;28;20038;-79
2024/01/01 00:28:56;;;;;;;2.55;2.13;;;;;;;;;;5000776;28;20077;-78
2024/01/01 00:31:24;;;;;;;0.95;0.95;;;;;;;;;;5005863;28;20056;-79
2024/01/01 00:33:52;;;;;;;4.30;4.00;;;;;;;;;;4989165;28;20037;-79
2024/01/01 00:36:19;;;;;;;9.02;6.70;;;;;;;;;;5006842;28;20042;-79
2024/01/01 00:38:47;;;;;;;0.88;0.88;;;;;;;;;;4994894;28;20121;-79
2024/01/01 00:41:16;;;;;;;6.70;3.95;;;;;;;;;;4997382;28;20511;-79
2024/01/01 00:43:43;;;;;;;1.52;1.52;;;;;;;;;;4973041;28;20042;-79
2024/01/01 00:46:11;;;;;;;6.20;3.75;;;;;;;;;;5005296;28;20651;-79
2024/01/01 00:48:39;;;;;;;1.05;1.05;;;;;;;;;;4986626;28;20102;-79
2024/01/01 00:51:06;;;;;;;2.90;2.70;;;;;;;;;;4997244;28;20419;-78
2024/01/01 00:53:35;;;;;;;0.52;0.45;;;;;;;;;;4995782;28;20041;-79
2024/01/01 00:56:03;;;;;;;0.52;0.50;;;;;;;;;;5007684;28;20075;-79
2024/01/01 00:58:30;;;;;;;3.50;3.20;;;;;;;;;;5005245;28;20400;-79
2024/01/01 01:00:58;;;;;;;0.10;0.10;;;;;;;;;;4993344;28;20053;-78
2024/01/01 01:03:26;;;;;;;10.32;4.57;;;;;;;;;;5007646;28;20049;-79
2024/01/01 01:05:54;;;;;;;4.25;2.92;;;;;;;;;;5005170;28;20053;-79
2024/01/01 01:08:21;;;;;;;1.17;1.08;;;;;;;;;;4990862;28;20450;-79
2024/01/01 01:10:49;;;;;;;4.13;3.80;;;;;;;;;;5007679;28;20419;-79
2024/01/01 01:13:17;;;;;;;2.47;2.33;;;;;;;;;;5006539;28;20065;-78
2024/01/01 01:15:45;;;;;;;2.63;2.40;;;;;;;;;;5005322;28;20129;-79
2024/01/01 01:18:12;;;;;;;1.38;1.08;;;;;;;;;;5004537;28;20471;-79
2024/01/01 01:20:40;;;;;;;1.85;1.42;;;;;;;;;;4987739;28;20471;-79
2024/01/01 01:23:08;;;;;;;0.63;0.63;;;;;;;;;;5005446;28;20389;-79
2024/01/01 01:25:36;;;;;;;1.73;1.60;;;;;;;;;;5003970;28;20125;-79
2024/01/01 01:28:13;;;;;;;3.20;2.92;;;;;;;;;;4993468;28;20565;-79
2024/01/01 01:30:44;;;;;;;17.40;4.65;;;;;;;;;;4974348;28;20053;-79
2024/01/01 01:33:11;;;;;;;2.92;2.60;;;;;;;;;;5006154;28;20050;-79
2024/01/01 01:35:39;;;;;;;0.10;0.10;;;;;;;;;;5001199;28;20059;-79
2024/01/01 01:38:06;;;;;;;1.48;1.38;;;;;;;;;;5005032;28;20050;-78
2024/01/01 01:40:34;;;;;;;1.35;1.27;;;;;;;;;;5004452;28;20042;-78
2024/01/01 01:43:02;;;;;;;1.40;1.30;;;;;;;;;;4992716;28;20073;-79
2024/01/01 01:45:30;;;;;;;2.42;2.25;;;;;;;;;;4993038;28;20049;-79
2024/01/01 01:47:58;;;;;;;1.35;1.27;;;;;;;;;;5004674;28;20092;-79
2024/01/01 01:50:25;;;;;;;0.77;0.77;;;;;;;;;;4999749;28;20136;-78
2024/01/01 01:52:53;;;;;;;0.75;0.75;;;;;;;;;;5002298;28;20050;-79
2024/01/01 01:55:22;;;;;;;0.35;0.35;;;;;;;;;;5005419;28;20053;-79
2024/01/01 01:57:50;;;;;;;3.65;3.45;;;;;;;;;;4996275;28;20092;-79
2024/01/01 02:00:18;;;;;;;5.13;2.83;;;;;;;;;;4987509;28;20042;-78
2024/01/01 02:02:46;;;;;;;2.00;1.92;;;;;;;;;;5001489;28;20056;-79
2024/01/01 02:05:13;;;;;;;1.88;1.73;;;;;;;;;;5000429;28;20101;-79
2024/01/01 02:07:45;;;;;;;0.95;0.95;;;;;;;;;;4988404;28;20533;-79
2024/01/01 02:10:12;;;;;;;0.17;0.17;;;;;;;;;;4989412;28;20212;-79
2024/01/01 02:12:40;;;;;;;0.75;0.75;;;;;;;;;;4985905;28;20077;-80
2024/01/01 02:15:08;;;;;;;0.20;0.20;;;;;;;;;;4993986;28;20074;-79
2024/01/01 02:17:36;;;;;;;0.82;0.82;;;;;;;;;;4997146;28;20050;-79
2024/01/01 02:20:05;;;;;;;6.43;1.77;;;;;;;;;;5004612;28;20069;-79
2024/01/01 02:22:45;;;;;;;2.90;1.13;;;;;;;;;;5006150;28;20038;-79
2024/01/01 02:25:13;;;;;;;0.25;0.25;;;;;;;;;;5008702;28;20096;-79
2024/01/01 02:27:40;;;;;;;1.38;0.85;;;;;;;;;;5009598;28;20072;-79
2024/01/01 02:30:11;;;;;;;3.20;1.83;;;;;;;;;;5009752;28;20057;-78
2024/01/01 02:32:39;;;;;;;3.03;1.45;;;;;;;;;;5008821;28;20048;-79
2024/01/01 02:35:08;;;;;;;0.35;0.35;;;;;;;;;;5014263;28;20058;-79
2024/01/01 02:37:37;;;;;;;2.35;2.20;;;;;;;;;;5007544;28;20041;-79
2024/01/01 02:40:08;;;;;;;0.90;0.88;;;;;;;;;;5015164;28;20120;-79
2024/01/01 02:42:36;;;;;;;0.43;0.43;;;;;;;;;;4992428;28;20125;-79
2024/01/01 02:45:05;;;;;;;4.22;3.92;;;;;;;;;;4991246;28;20050;-78
2024/01/01 02:47:33;;;;;;;2.90;1.85;;;;;;;;;;4989190;28;20096;-79
2024/01/01 02:50:00;;;;;;;2.00;1.90;;;;;;;;;;5005933;28;20054;-79
2024/01/01 02:52:28;;;;;;;0.20;0.20;;;;;;;;;;5003179;28;20526;-79
2024/01/01 02:54:55;;;;;;;2.20;2.08;;;;;;;;;;5005013;28;20062;-79
2024/01/01 02:57:26;;;;;;;1.40;0.88;;;;;;;;;;5005547;28;20559;-79
2024/01/01 02:59:53;;;;;;;0.85;0.85;;;;;;;;;;4989006;28;20578;-79
2024/01/01 03:02:21;;;;;;;1.95;1.65;;;;;;;;;;4989459;28;20676;-79
2024/01/01 03:04:49;;;;;;;0.20;0.20;;;;;;;;;;5004080;28;20226;-80
2024/01/01 03:07:16;;;;;;;0.90;0.43;;;;;;;;;;5002230;28;20046;-79
2024/01/01 03:09:44;;;;;;;3.58;2.70;;;;;;;;;;5004377;28;20053;-79
2024/01/01 03:12:11;;;;;;;0.30;0.30;;;;;;;;;;5004307;28;20088;-79
2024/01/01 03:14:43;;;;;;;0.10;0.10;;;;;;;;;;4986387;28;20546;-79
2024/01/01 03:17:13;;;;;;;1.17;0.47;;;;;;;;;;4975571;28;20058;-79
2024/01/01 03:19:41;;;;;;;0.90;0.85;;;;;;;;;;4987586;28;20045;-79
2024/01/01 03:22:09;;;;;;;1.27;1.17;;;;;;;;;;5002142;28;20042;-79
2024/01/01 03:24:36;;;;;;;1.23;1.13;;;;;;;;;;5005454;28;20081;-79
2024/01/01 03:27:04;;;;;;;0.63;0.63;;;;;;;;;;4990350;28;20056;-79
2024/01/01 03:29:32;;;;;;;1.45;1.13;;;;;;;;;;5004685;28;20116;-79
2024/01/01 03:31:59;;;;;;;2.65;2.45;;;;;;;;;;4991431;28;20104;-79
2024/01/01 03:34:27;;;;;;;2.55;1.95;;;;;;;;;;4989541;28;20116;-79
2024/01/01 03:36:55;;;;;;;0.40;0.40;;;;;;;;;;4987278;28;20054;-79
2024/01/01 03:39:22;;;;;;;0.55;0.55;;;;;;;;;;5002806;28;20563;-79
2024/01/01 03:41:50;;;;;;;0.20;0.20;;;;;;;;;;4989136;28;20048;-79
2024/01/01 03:44:18;;;;;;;0.10;0.10;;;;;;;;;;4991147;28;20042;-79
2024/01/01 03:46:46;;;;;;;5.82;1.13;;;;;;;;;;4978137;28;20046;-79
2024/01/01 03:49:14;;;;;;;1.60;0.85;;;;;;;;;;5009015;28;20060;-79
2024/01/01 03:51:42;;;;;;;0.47;0.47;;;;;;;;;;5009607;28;20073;-78
2024/01/01 03:54:09;;;;;;;11.05;7.80;;;;;;;;;;4988018;28;20056;-79
2024/01/01 03:56:37;;;;;;;24.02;14.27;;;;;;;;;;4991320;28;20061;-80
2024/01/01 03:59:04;;;;;;;0.75;0.75;;;;;;;;;;5007926;28;20141;-78
2024/01/01 04:01:32;;;;;;;3.05;2.85;;;;;;;;;;4988344;28;20046;-79
2024/01/01 04:04:03;;;;;;;1.60;1.50;;;;;;;;;;4991343;28;20408;-79
2024/01/01 04:06:31;;;;;;;0.93;0.77;;;;;;;;;;5006585;28;20046;-79
2024/01/01 04:08:58;;;;;;;0.10;0.10;;;;;;;;;;5002808;28;20440;-79
2024/01/01 04:11:26;;;;;;;0.80;0.80;;;;;;;;;;5007407;28;20061;-79
2024/01/01 04:13:54;;;;;;;0.43;0.43;;;;;;;;;;4992273;28;20535;-78
2024/01/01 04:16:21;;;;;;;0.38;0.38;;;;;;;;;;5005759;28;20168;-79
2024/01/01 04:18:50;;;;;;;1.05;1.02;;;;;;;;;;5006752;28;20081;-79
2024/01/01 04:21:18;;;;;;;2.47;2.10;;;;;;;;;;5008062;28;20558;-79
2024/01/01 04:23:45;;;;;;;0.30;0.30;;;;;;;;;;4969970;28;20052;-79
2024/01/01 04:26:14;;;;;;;3.75;2.63;;;;;;;;;;5008785;28;20090;-78
2024/01/01 04:28:42;;;;;;;2.22;1.20;;;;;;;;;;5005749;28;20041;-79
2024/01/01 04:31:09;;;;;;;1.40;1.02;;;;;;;;;;5004029;28;20419;-79
2024/01/01 04:33:37;;;;;;;0.80;0.63;;;;;;;;;;4993238;28;20046;-79
2024/01/01 04:36:05;;;;;;;6.07;5.15;;;;;;;;;;5008602;28;20215;-80
2024/01/01 04:38:33;;;;;;;1.35;1.35;;;;;;;;;;4985888;28;20419;-79
2024/01/01 04:41:00;;;;;;;2.08;1.98;;;;;;;;;;4991948;28;20061;-79
2024/01/01 04:43:28;;;;;;;2.95;1.95;;;;;;;;;;5010303;28;20038;-79
2024/01/01 04:45:56;;;;;;;1.67;1.55;;;;;;;;;;5009307;28;20052;-78
2024/01/01 04:48:24;;;;;;;0.40;0.40;;;;;;;;;;5007830;28;20046;-78
2024/01/01 04:50:51;;;;;;;3.95;2.72;;;;;;;;;;5009804;28;20166;-79
2024/01/01 04:53:19;;;;;;;3.13;0.77;;;;;;;;;;5008324;28;20046;-79
2024/01/01 04:55:47;;;;;;;0.10;0.10;;;;;;;;;;5009963;28;20427;-79
2024/01/01 04:58:14;;;;;;;0.52;0.52;;;;;;;;;;5011440;28;20050;-79
2024/01/01 05:00:42;;;;;;;0.32;0.32;;;;;;;;;;4999789;28;20046;-78
2024/01/01 05:03:10;;;;;;;1.45;1.35;;;;;;;;;;5015059;28;20046;-79
2024/01/01 05:05:37;;;;;;;2.50;2.30;;;;;;;;;;4998557;28;20030;-79
2024/01/01 05:08:05;;;;;;;0.10;0.10;;;;;;;;;;5005910;28;20467;-78
2024/01/01 05:10:33;;;;;;;0.30;0.30;;;;;;;;;;5004613;28;20143;-79
2024/01/01 05:13:01;;;;;;;0.10;0.10;;;;;;;;;;5006184;28;20413;-79
2024/01/01 05:15:28;;;;;;;0.90;0.90;;;;;;;;;;5004066;28;20053;-79
2024/01/01 05:17:56;;;;;;;0.52;0.52;;;;;;;;;;4988718;28;20053;-79
2024/01/01 05:20:25;;;;;;;1.25;0.95;;;;;;;;;;5008706;28;20042;-80
2024/01/01 05:22:53;;;;;;;1.73;1.15;;;;;;;;;;5008295;28;20068;-80
2024/01/01 05:25:20;;;;;;;0.98;0.95;;;;;;;;;;5004163;28;20092;-79
2024/01/01 05:27:48;;;;;;;1.15;1.05;;;;;;;;;;5006319;28;20045;-79
2024/01/01 05:30:15;;;;;;;0.38;0.38;;;;;;;;;;5003079;28;20049;-79
2024/01/01 05:32:43;;;;;;;0.15;0.15;;;;;;;;;;5005941;28;20077;-79
2024/01/01 05:35:11;;;;;;;1.75;1.65;;;;;;;;;;5006351;28;20056;-80
2024/01/01 05:37:38;;;;;;;1.33;1.27;;;;;;;;;;4992160;28;20049;-80
2024/01/01 05:40:06;;;;;;;0.25;0.25;;;;;;;;;;5002147;28;20320;-79
2024/01/01 05:42:34;;;;;;;1.48;1.38;;;;;;;;;;5005615;28;20161;-79
2024/01/01 05:45:03;;;;;;;0.68;0.68;;;;;;;;;;5006338;28;20522;-79
2024/01/01 05:47:30;;;;;;;0.43;0.43;;;;;;;;;;5002798;28;20060;-79
2024/01/01 05:49:58;;;;;;;0.60;0.60;;;;;;;;;;5006197;28;20073;-79
2024/01/01 05:52:26;;;;;;;1.10;1.10;;;;;;;;;;5004887;28;20058;-79
2024/01/01 05:54:54;;;;;;;0.50;0.50;;;;;;;;;;5004014;28;20054;-79
2024/01/01 05:57:21;;;;;;;0.10;0.10;;;;;;;;;;5006146;28;20127;-79
2024/01/01 05:59:49;;;;;;;1.17;1.08;;;;;;;;;;5004929;28;20072;-79
2024/01/01 06:02:16;;;;;;;0.32;0.28;;;;;;;;;;5001203;28;20424;-79
2024/01/01 06:04:44;;;;;;;0.10;0.10;;;;;;;;;;5006049;28;20061;-79
2024/01/01 06:07:11;;;;;;;0.10;0.10;;;;;;;;;;5002275;28;20043;-78
2024/01/01 06:09:40;;;;;;;0.57;0.57;;;;;;;;;;4986055;28;20041;-79
2024/01/01 06:12:07;;;;;;;0.98;0.57;;;;;;;;;;4987671;28;20119;-79
2024/01/01 06:14:35;;;;;;;1.25;0.73;;;;;;;;;;5004485;28;20045;-79
2024/01/01 06:17:03;;;;;;;0.10;0.10;;;;;;;;;;4992140;23;20041;-79
2024/01/01 06:19:31;;;;;;;0.30;0.30;;;;;;;;;;5008397;28;20068;-79
2024/01/01 06:22:12;;;;;;;1.08;0.63;;;;;;;;;;5016793;28;20107;-79
2024/01/01 06:24:39;;;;;;;0.25;0.25;;;;;;;;;;5025447;28;20049;-79
2024/01/01 06:27:10;;;;;;;0.10;0.10;;;;;;;;;;5004882;28;20128;-80
2024/01/01 06:29:37;;;;;;;0.03;0.03;;;;;;;;;;4993731;28;20184;-79
2024/01/01 06:32:06;;;;;;;0.57;0.57;;;;;;;;;;5011176;28;20054;-79
2024/01/01 06:34:33;;;;;;;0.20;0.20;;;;;;;;;;5014046;28;20085;-79
2024/01/01 06:37:01;;;;;;;0.30;0.30;;;;;;;;;;4989288;28;20072;-79
2024/01/01 06:39:28;;;;;;;1.58;0.52;;;;;;;;;;5013638;28;20042;-79
2024/01/01 06:41:56;;;;;;;0.30;0.30;;;;;;;;;;4996537;28;20137;-79
2024/01/01 06:44:25;;;;;;;0.35;0.35;;;;;;;;;;4994503;28;20121;-79
2024/01/01 06:46:52;;;;;;;0.57;0.57;;;;;;;;;;5009196;28;20044;-79
2024/01/01 06:49:20;;;;;;;0.20;0.20;;;;;;;;;;5015393;28;20077;-79
2024/01/01 06:51:50;;;;;;;1.50;1.40;;;;;;;;;;5013084;28;20193;-80
2024/01/01 06:54:18;;;;;;;0.55;0.55;;;;;;;;;;5010533;28;20050;-79
2024/01/01 06:56:45;;;;;;;5.70;1.88;;;;;;;;;;5011681;28;20104;-79
2024/01/01 06:59:13;;;;;;;0.30;0.30;;;;;;;;;;5013439;28;20528;-79
2024/01/01 07:01:42;;;;;;;0.10;0.10;;;;;;;;;;4996600;28;20039;-79
2024/01/01 07:04:14;;;;;;;5.18;1.67;;;;;;;;;;5000984;28;20567;-79
2024/01/01 07:06:41;;;;;;;0.22;0.22;;;;;;;;;;5010831;23;20058;-74
2024/01/01 07:09:12;;;;;;;0.38;0.38;;;;;;;;;;4985791;28;20691;-75
2024/01/01 07:11:40;;;;;;;1.35;1.27;;;;;;;;;;4989858;28;20054;-73
2024/01/01 07:14:07;;;;;;;0.10;0.10;;;;;;;;;;4983021;28;20137;-72
2024/01/01 07:16:35;;;;;;;0.95;0.95;;;;;;;;;;4981714;28;20046;-73
2024/01/01 07:19:05;;;;;;;2.75;1.27;;;;;;;;;;4982938;28;20101;-73
2024/01/01 07:21:33;;;;;;;0.32;0.32;;;;;;;;;;4965620;28;24524;-73
2024/01/01 07:24:01;;;;;;;2.80;2.60;;;;;;;;;;4977255;28;23472;-73
2024/01/01 07:26:29;;;;;;;0.55;0.55;;;;;;;;;;4970553;28;20043;-75
2024/01/01 07:28:57;;;;;;;1.92;1.52;;;;;;;;;;4952641;28;21923;-75
2024/01/01 07:31:25;;;;;;;2.90;2.40;;;;;;;;;;4957021;28;20046;-74
2024/01/01 07:33:52;;;;;;;1.02;0.80;;;;;;;;;;4979057;28;20120;-73
2024/01/01 07:36:20;;;;;;;4.35;1.10;;;;;;;;;;4985104;28;20077;-73
2024/01/01 07:38:51;;;;;;;1.15;1.08;;;;;;;;;;4957546;28;22503;-73
2024/01/01 07:41:18;;;;;;;0.30;0.30;;;;;;;;;;4933173;28;21745;-73
2024/01/01 07:43:47;;;;;;;0.65;0.65;;;;;;;;;;4978156;28;20404;-72
2024/01/01 07:46:15;;;;;;;6.47;4.60;;;;;;;;;;4965778;28;24941;-73
2024/01/01 07:48:42;;;;;;;1.33;1.27;;;;;;;;;;4978127;28;20034;-73
2024/01/01 07:51:11;;;;;;;1.08;1.08;;;;;;;;;;4969990;28;20054;-74
2024/01/01 07:53:39;;;;;;;0.77;0.77;;;;;;;;;;4988045;28;20070;-73
2024/01/01 07:56:07;;;;;;;0.82;0.82;;;;;;;;;;4981269;28;20394;-73
2024/01/01 07:58:34;;;;;;;0.95;0.95;;;;;;;;;;4975386;28;20146;-74
2024/01/01 08:01:02;;;;;;;0.73;0.73;;;;;;;;;;4984107;28;20046;-75
2024/01/01 08:03:30;;;;;;;2.22;2.03;;;;;;;;;;4985765;28;20049;-73
2024/01/01 08:05:57;;;;;;;0.20;0.20;;;;;;;;;;4984684;28;20109;-74
2024/01/01 08:08:25;;;;;;;0.57;0.57;;;;;;;;;;4985741;28;20089;-74
2024/01/01 08:10:53;;;;;;;0.10;0.10;;;;;;;;;;4975548;28;20704;-74
2024/01/01 08:13:21;;;;;;;1.88;1.77;;;;;;;;;;4985842;28;20054;-74
2024/01/01 08:15:49;;;;;;;1.77;1.45;;;;;;;;;;4985900;28;20058;-73
2024/01/01 08:18:16;;;;;;;0.63;0.63;;;;;;;;;;4987467;28;20046;-74
2024/01/01 08:20:44;;;;;;;0.43;0.43;;;;;;;;;;4984912;28;20081;-74
2024/01/01 08:23:12;;;;;;;0.20;0.20;;;;;;;;;;4969825;28;20060;-74
2024/01/01 08:25:39;;;;;;;0.10;0.10;;;;;;;;;;4983381;28;20558;-74
2024/01/01 08:28:07;;;;;;;0.10;0.10;;;;;;;;;;4970359;28;20053;-73
2024/01/01 08:30:35;;;;;;;0.22;0.22;;;;;;;;;;4984698;28;20464;-73
2024/01/01 08:33:02;;;;;;;0.28;0.28;;;;;;;;;;4985818;28;20050;-74
2024/01/01 08:35:31;;;;;;;0.43;0.43;;;;;;;;;;4982489;28;20042;-77
2024/01/01 08:37:59;;;;;;;0.10;0.10;;;;;;;;;;4982952;28;20051;-75
2024/01/01 08:40:26;;;;;;;0.98;0.35;;;;;;;;;;4981667;28;20549;-75
2024/01/01 08:42:54;;;;;;;1.38;0.38;;;;;;;;;;4981066;28;20192;-75
2024/01/01 08:45:23;;;;;;;0.45;0.45;;;;;;;;;;4981673;28;20238;-74
2024/01/01 08:47:50;;;;;;;2.22;2.05;;;;;;;;;;4984454;28;20069;-75
2024/01/01 08:50:18;;;;;;;0.10;0.10;;;;;;;;;;4982061;28;24169;-75
2024/01/01 08:52:46;;;;;;;1.02;1.02;;;;;;;;;;4984313;28;20465;-75
2024/01/01 08:55:14;;;;;;;0.98;0.90;;;;;;;;;;4984174;28;20500;-75
2024/01/01 08:57:42;;;;;;;0.35;0.35;;;;;;;;;;4983212;28;20069;-75
2024/01/01 09:00:10;;;;;;;1.83;1.13;;;;;;;;;;4984369;28;20055;-75
2024/01/01 09:02:40;;;;;;;1.88;1.77;;;;;;;;;;4984346;28;20527;-75
2024/01/01 09:05:09;;;;;;;1.92;1.80;;;;;;;;;;4986747;28;20054;-75
2024/01/01 09:07:37;;;;;;;1.20;1.17;;;;;;;;;;4982349;28;20507;-75
2024/01/01 09:10:05;;;;;;;0.73;0.73;;;;;;;;;;4986041;28;20052;-75
2024/01/01 09:12:33;;;;;;;0.45;0.45;;;;;;;;;;4978194;28;20047;-75
2024/01/01 09:15:01;;;;;;;0.47;0.47;;;;;;;;;;4984307;28;20137;-75
2024/01/01 09:17:28;;;;;;;1.23;1.20;;;;;;;;;;4988555;28;20084;-75
2024/01/01 09:19:56;;;;;;;1.13;0.40;;;;;;;;;;4987880;28;20458;-74
2024/01/01 09:22:24;;;;;;;1.38;0.43;;;;;;;;;;4988246;28;20515;-74
2024/01/01 09:24:51;;;;;;;2.92;0.73;;;;;;;;;;4976214;28;20077;-74
2024/01/01 09:27:19;;;;;;;0.43;0.43;;;;;;;;;;4985329;28;20038;-74
2024/01/01 09:29:46;;;;;;;1.17;0.90;;;;;;;;;;4988749;28;20074;-75
2024/01/01 09:32:14;;;;;;;0.60;0.60;;;;;;;;;;4982312;28;20062;-75
2024/01/01 09:34:42;;;;;;;0.55;0.55;;;;;;;;;;4984646;28;20062;-75
2024/01/01 09:37:10;;;;;;;0.10;0.10;;;;;;;;;;4984870;28;20535;-75
2024/01/01 09:39:38;;;;;;;1.45;0.85;;;;;;;;;;4988564;28;20538;-74
2024/01/01 09:42:07;;;;;;;0.82;0.82;;;;;;;;;;4987251;28;20061;-74
2024/01/01 09:44:36;;;;;;;0.35;0.35;;;;;;;;;;4983273;28;20150;-75
2024/01/01 09:47:05;;;;;;;1.45;1.35;;;;;;;;;;4986230;28;20058;-74
2024/01/01 09:49:33;;;;;;;0.40;0.40;;;;;;;;;;4982327;28;20039;-74
2024/01/01 09:52:04;;;;;;;0.95;0.70;;;;;;;;;;4984702;28;20121;-74
2024/01/01 09:54:33;;;;;;;1.58;1.15;;;;;;;;;;4987759;28;20066;-75
2024/01/01 09:57:01;;;;;;;1.67;1.58;;;;;;;;;;4977008;28;20054;-74
2024/01/01 09:59:39;;;;;;;1.65;1.55;;;;;;;;;;4980824;28;20058;-75
2024/01/01 10:02:09;;;;;;;2.08;1.23;;;;;;;;;;4982202;28;20053;-75
2024/01/01 10:04:37;;;;;;;1.85;0.65;;;;;;;;;;4983830;28;20054;-74
2024/01/01 10:07:05;;;;;;;0.13;0.13;;;;;;;;;;4983072;28;20050;-74
2024/01/01 10:09:37;;;;;;;1.17;0.50;;;;;;;;;;4966409;28;20058;-76
2024/01/01 10:12:09;;;;;;;0.80;0.80;;;;;;;;;;4983115;28;20559;-75
2024/01/01 10:14:45;;;;;;;0.25;0.25;;;;;;;;;;4965374;28;20113;-75
2024/01/01 10:17:14;;;;;;;0.10;0.10;;;;;;;;;;4971671;28;20097;-76
2024/01/01 10:20:00;;;;;;;1.67;1.55;;;;;;;;;;4980010;28;20054;-76
2024/01/01 10:22:31;;;;;;;0.20;0.20;;;;;;;;;;4976709;28;20074;-75
2024/01/01 10:25:13;;;;;;;0.30;0.30;;;;;;;;;;4979815;28;20046;-74
2024/01/01 10:27:45;;;;;;;0.75;0.43;;;;;;;;;;4981722;28;20057;-75
2024/01/01 10:30:12;;;;;;;0.13;0.13;;;;;;;;;;4971256;28;44429;-75
2024/01/01 10:32:41;;;;;;;0.73;0.73;;;;;;;;;;4980269;28;20050;-74
2024/01/01 10:35:09;;;;;;;0.20;0.20;;;;;;;;;;4961473;28;35223;-75
2024/01/01 10:37:38;;;;;;;0.17;0.17;;;;;;;;;;4952476;28;20543;-75
2024/01/01 10:40:06;;;;;;;0.70;0.70;;;;;;;;;;4984210;28;20476;-75
2024/01/01 10:42:34;;;;;;;0.65;0.65;;;;;;;;;;4971203;28;20117;-76
2024/01/01 10:45:05;;;;;;;0.30;0.30;;;;;;;;;;4966203;28;20058;-76
2024/01/01 10:47:34;;;;;;;0.50;0.50;;;;;;;;;;4977736;28;20261;-76
2024/01/01 10:50:11;;;;;;;0.15;0.15;;;;;;;;;;4976762;28;20046;-76
2024/01/01 10:52:41;;;;;;;0.20;0.20;;;;;;;;;;4920660;28;21357;-74
2024/01/01 10:55:33;;;;;;;1.25;0.65;;;;;;;;;;4980555;28;20100;-75
2024/01/01 10:58:10;;;;;;;0.30;0.30;;;;;;;;;;4983760;28;20528;-75
2024/01/01 11:00:41;;;;;;;0.32;0.32;;;;;;;;;;4974232;28;20440;-75
2024/01/01 11:03:13;;;;;;;2.23;1.27;;;;;;;;;;4984728;28;20062;-75
2024/01/01 11:05:45;;;;;;;1.38;0.57;;;;;;;;;;4968547;28;20294;-75
2024/01/01 11:08:13;;;;;;;0.00;0.00;;;;;;;;;;4983122;28;20519;-75
2024/01/01 11:10:42;;;;;;;0.38;0.38;;;;;;;;;;4951704;28;20177;-75
2024/01/01 11:13:33;;;;;;;0.20;0.20;;;;;;;;;;4983987;28;20093;-75
2024/01/01 11:16:01;;;;;;;1.48;0.38;;;;;;;;;;4956258;28;20392;-75
2024/01/01 11:18:33;;;;;;;0.10;0.10;;;;;;;;;;4973886;28;20050;-75
2024/01/01 11:21:07;;;;;;;0.30;0.30;;;;;;;;;;4981815;28;20046;-75
2024/01/01 11:23:42;;;;;;;0.20;0.20;;;;;;;;;;4986529;28;20051;-75
2024/01/01 11:26:32;;;;;;;0.25;0.25;;;;;;;;;;4976216;28;20074;-75
2024/01/01 11:29:02;;;;;;;0.40;0.40;;;;;;;;;;4983901;28;20397;-75
2024/01/01 11:31:31;;;;;;;0.35;0.17;;;;;;;;;;4984920;28;20060;-75
2024/01/01 11:33:59;;;;;;;0.70;0.68;;;;;;;;;;4967249;28;20050;-75
2024/01/01 11:36:40;;;;;;;0.20;0.20;;;;;;;;;;4965777;28;20054;-76
2024/01/01 11:39:08;;;;;;;0.30;0.30;;;;;;;;;;4964553;28;20604;-76
2024/01/01 11:41:36;;;;;;;0.20;0.20;;;;;;;;;;4982453;28;20074;-76
2024/01/01 11:44:10;;;;;;;0.10;0.10;;;;;;;;;;4961193;28;20057;-76
2024/01/01 11:46:38;;;;;;;1.13;0.38;;;;;;;;;;4984725;28;20058;-76
2024/01/01 11:49:07;;;;;;;0.47;0.47;;;;;;;;;;4972876;28;20500;-76
2024/01/01 11:51:54;;;;;;;0.13;0.13;;;;;;;;;;4972894;28;20050;-76
2024/01/01 11:54:26;;;;;;;0.10;0.10;;;;;;;;;;4972208;28;20094;-76
2024/01/01 11:56:56;;;;;;;0.50;0.30;;;;;;;;;;4975072;28;20055;-76
2024/01/01 11:59:26;;;;;;;0.95;0.60;;;;;;;;;;4971446;28;20078;-76
2024/01/01 12:01:54;;;;;;;0.35;0.35;;;;;;;;;;4982484;28;20473;-75
2024/01/01 12:04:22;;;;;;;0.10;0.10;;;;;;;;;;4962263;28;20690;-76
2024/01/01 12:06:51;;;;;;;0.32;0.32;;;;;;;;;;4977701;28;20748;-76
2024/01/01 12:09:20;;;;;;;0.40;0.40;;;;;;;;;;4982973;28;20038;-75
2024/01/01 12:11:49;;;;;;;0.30;0.30;;;;;;;;;;4979676;28;20104;-77
2024/01/01 12:14:27;;;;;;;0.82;0.40;;;;;;;;;;4984106;28;20054;-76
2024/01/01 12:16:58;;;;;;;0.52;0.52;;;;;;;;;;4980963;28;20587;-77
2024/01/01 12:19:26;;;;;;;0.10;0.10;;;;;;;;;;4973441;28;20057;-77
2024/01/01 12:21:54;;;;;;;0.20;0.20;;;;;;;;;;4954453;28;20042;-77
2024/01/01 12:24:22;;;;;;;0.10;0.10;;;;;;;;;;4954811;28;20051;-76
2024/01/01 12:27:01;;;;;;;1.55;1.05;;;;;;;;;;4981666;28;20034;-77
2024/01/01 12:29:29;;;;;;;1.85;0.47;;;;;;;;;;4978434;28;20088;-77
2024/01/01 12:31:57;;;;;;;1.40;0.93;;;;;;;;;;4980425;28;20058;-77
2024/01/01 12:34:31;;;;;;;0.10;0.10;;;;;;;;;;4974883;28;22384;-77
2024/01/01 12:37:00;;;;;;;1.00;0.75;;;;;;;;;;4984391;28;20046;-77
2024/01/01 12:39:28;;;;;;;1.15;0.47;;;;;;;;;;4985118;28;20146;-77
2024/01/01 12:41:56;;;;;;;0.20;0.20;;;;;;;;;;4982648;28;20050;-77
2024/01/01 12:44:23;;;;;;;0.20;0.20;;;;;;;;;;4983901;28;20045;-77
2024/01/01 12:46:51;;;;;;;0.20;0.20;;;;;;;;;;4981840;28;20050;-75
2024/01/01 12:49:19;;;;;;;0.10;0.10;;;;;;;;;;4970413;28;20042;-77
2024/01/01 12:51:48;;;;;;;0.50;0.50;;;;;;;;;;4979618;28;21193;-76
2024/01/01 12:54:16;;;;;;;1.10;0.55;;;;;;;;;;4983720;28;20185;-76
2024/01/01 12:56:44;;;;;;;0.00;0.00;;;;;;;;;;4982798;28;20042;-76
2024/01/01 12:59:14;;;;;;;2.13;1.63;;;;;;;;;;4986445;28;20073;-76
2024/01/01 13:01:44;;;;;;;0.20;0.20;;;;;;;;;;4980838;28;20047;-77
2024/01/01 13:04:11;;;;;;;0.10;0.10;;;;;;;;;;4969945;28;20055;-76
2024/01/01 13:06:39;;;;;;;0.38;0.38;;;;;;;;;;4968979;28;20108;-77
2024/01/01 13:09:10;;;;;;;0.10;0.10;;;;;;;;;;4966915;28;20070;-77
2024/01/01 13:11:38;;;;;;;0.10;0.10;;;;;;;;;;4981067;28;20054;-76
2024/01/01 13:14:06;;;;;;;0.47;0.47;;;;;;;;;;4984714;28;20054;-76
2024/01/01 13:16:34;;;;;;;0.60;0.60;;;;;;;;;;4984169;28;20058;-75
2024/01/01 13:19:02;;;;;;;2.40;0.85;;;;;;;;;;4984713;28;20141;-77
2024/01/01 13:21:30;;;;;;;0.38;0.38;;;;;;;;;;4968900;28;20078;-77
2024/01/01 13:23:58;;;;;;;0.32;0.32;;;;;;;;;;4979683;28;20051;-76
2024/01/01 13:26:28;;;;;;;0.73;0.60;;;;;;;;;;4984105;28;20556;-76
2024/01/01 13:28:55;;;;;;;1.13;1.02;;;;;;;;;;4984748;28;20493;-76
2024/01/01 13:31:27;;;;;;;0.30;0.30;;;;;;;;;;4968028;28;20050;-76
2024/01/01 13:33:55;;;;;;;1.95;0.60;;;;;;;;;;4970591;28;20039;-76
2024/01/01 13:36:23;;;;;;;3.97;0.98;;;;;;;;;;4965320;28;20046;-76
2024/01/01 13:38:50;;;;;;;0.20;0.20;;;;;;;;;;4969923;28;20042;-76
2024/01/01 13:41:18;;;;;;;0.13;0.13;;;;;;;;;;4982062;28;20078;-76
2024/01/01 13:43:45;;;;;;;1.48;0.80;;;;;;;;;;4983970;28;20421;-76
2024/01/01 13:46:14;;;;;;;0.10;0.10;;;;;;;;;;4983442;28;20125;-76
2024/01/01 13:48:43;;;;;;;0.35;0.35;;;;;;;;;;4984602;28;20042;-76
2024/01/01 13:51:16;;;;;;;0.10;0.10;;;;;;;;;;4971873;28;20050;-77
2024/01/01 13:53:44;;;;;;;0.10;0.10;;;;;;;;;;4966724;28;20046;-77
2024/01/01 13:56:21;;;;;;;0.10;0.10;;;;;;;;;;4987798;28;20125;-76
2024/01/01 13:58:49;;;;;;;0.25;0.25;;;;;;;;;;4970573;28;20394;-76
2024/01/01 14:01:17;;;;;;;0.55;0.55;;;;;;;;;;4983139;28;20062;-77
2024/01/01 14:03:46;;;;;;;0.30;0.30;;;;;;;;;;4980886;28;20034;-77
2024/01/01 14:06:14;;;;;;;0.10;0.10;;;;;;;;;;4969047;28;20046;-77
2024/01/01 14:08:41;;;;;;;0.10;0.10;;;;;;;;;;4954110;28;20052;-78
2024/01/01 14:11:09;;;;;;;0.10;0.10;;;;;;;;;;4956543;28;20162;-78
2024/01/01 14:13:37;;;;;;;0.20;0.20;;;;;;;;;;4975549;28;20046;-78
2024/01/01 14:16:04;;;;;;;0.98;0.43;;;;;;;;;;4968003;28;20133;-78
2024/01/01 14:18:32;;;;;;;1.35;0.20;;;;;;;;;;4974163;28;20046;-77
2024/01/01 14:21:00;;;;;;;0.30;0.30;;;;;;;;;;4960503;28;20527;-78
2024/01/01 14:23:28;;;;;;;0.10;0.10;;;;;;;;;;4976822;28;20050;-78
2024/01/01 14:25:56;;;;;;;0.20;0.20;;;;;;;;;;4975374;28;20504;-78
2024/01/01 14:28:23;;;;;;;0.10;0.10;;;;;;;;;;4985625;28;20121;-78
2024/01/01 14:30:53;;;;;;;0.30;0.30;;;;;;;;;;4976378;28;20504;-78
2024/01/01 14:33:21;;;;;;;1.02;0.98;;;;;;;;;;4980976;28;20058;-78
2024/01/01 14:35:49;;;;;;;1.45;0.82;;;;;;;;;;4969621;28;20136;-78
2024/01/01 14:38:16;;;;;;;0.35;0.35;;;;;;;;;;4972726;28;20144;-78
2024/01/01 14:40:44;;;;;;;1.80;1.33;;;;;;;;;;4981533;28;20558;-78
2024/01/01 14:43:13;;;;;;;0.30;0.30;;;;;;;;;;4967170;28;20062;-78
2024/01/01 14:45:41;;;;;;;5.32;2.38;;;;;;;;;;4962062;28;20046;-78
2024/01/01 14:48:08;;;;;;;4.70;1.75;;;;;;;;;;4980999;28;20105;-78
2024/01/01 14:50:39;;;;;;;0.88;0.70;;;;;;;;;;4962995;28;20058;-77
2024/01/01 14:53:53;;;;;;;0.63;0.63;;;;;;;;;;5054445;23;20511;-78